Welcome to Trans World Virtual Airlines!

Welcome TWVA's Newest Pilot:

TWA2313 Bryan Heald

Not a Trans World pilot yet?
Apply Now!




Sign-in with your pilot id or email, or register

Flight TWA360-A

  • Submitted By: Austin Hill
  • Departure Airport: Lambert-Saint Louis International Airport (KSTL)
  • Arrival Airport: Hartsfield - Jackson Atlanta International Airport (KATL)
  • Aircraft: MD-83 (N44266TW)
  • Flight Time: 01.53
  • Date Submitted: 01/02/2018
  • Route: RONNE, MWA, MURAC, GHM, ONDOW, RMG, BATLL, ATL
  • Status: Accepted
Flight Details
Gross Revenue:
(122 load / $ 195.00 per unit
$ 23, 790.00
Fuel Cost:
(12914 fuel used @ 0.8 / unit)
$ 10, 331.20

Additional Log Information:

View Log

FS[19:03] Aircraft Title - MD_83 Paint4
FS[19:03] Aircraft Model - MD83
FS[19:03] Flight Number TWA360-A
FS[19:03] Departure KSTL
FS[19:03] Destination KATL
FS[19:03] Boarding
FS[19:12] Pushing Back
FS[19:17] Taxiing to Runway
FS[19:22] Taking Off
FS[19:22] Taking Off
FS[19:22] 172kts
FS[19:22] pitch angle 10 degrees
FS[19:22] 36419 (lbs) of fuel onboard
FS[19:22] Climbing
FS[19:42] TOC Reached
FS[19:42] Cruise 35000
FS[19:51] Overspeed
FS[19:51] Overspeed Corrected
FS[20:08] TOD Reached
FS[20:08] Descending
FS[20:23] On Approach
FS[20:28] Landing Rate -140fpm
FS[20:28] 25556 (lbs) of fuel onboard
FS[20:28] pitch angle 5 degrees
FS[20:29] Taxiing to Gate
FS[20:46] Arrived
FS[20:54] Max Sim Rate: 1x
FS[20:54] kACARS_Free Version 1.0.1.1

Comments

Commenter Comment
Austin Hill KSTL 021901Z 25005KT 10SM CLR M09/M18 A3057 // KATL 022009Z 08804KT 10SM CLR 02/M16 A3042

Route Map